Christchurch, United Kingdom
Current Conditions -  °F | °C
As of 6:20 AM on Wednesday 28 Jan 2015 (Local Time) from EGHH Reporting Station
Drizzle Drizzle  
Wind Chill: 50°   Ceiling: 500
Heat Index: 50°   Visibility: 2.8mi
Dew Point: 48°   Wind: 16mph
Humidity: 94%   Direction: 230°SW
Pressure: 29.83"   Gusts: 28mph
Location:  50.77°N, 1.78°W
Report Text: EGHH 280620Z 23014G24KT 4500 DZ BR BKN005 10/09 Q1010
Loading
Personal Weather Stations






























Interactive Weather Map New forecast layout! Learn more

10-Day Weather Forecast

Advertisements
Track Severe Weather on mobile